Latest Weather Observations for Moree

IDN60801

Issued at 6:32 am EDT Sunday 14 February 2016 (issued every 30 minutes, with the page automatically refreshed every 10 minutes)

About weather observations | Map of weather stations | Latest weather observations for NSW | Other Formats
Station Details ID: 053115 Name: MOREE AERO Lat: -29.49 Lon: 149.85 Height: 213.0 m
Data from the previous 72 hours. | See also: Recent months at Moree
Date/Time
EDT
Temp
°C
App
Temp
°C
Dew
Point
Rel
Hum
%
Delta-T
°C
Wind Press
QNH
hPa
Press
MSL
hPa
Rain
since 9 am
mm
Dir
 
Spd
km/h
Gust
km/h
Spd
kts
Gust
kts
14/06:00am 20.2 18.6 12.9 63 4.2 NE 13 13 7 7 1010.2 1008.9 0.0
14/05:30am 20.6 19.4 12.8 61 4.5 NNE 11 11 6 6 1010.0 1008.7 0.0
14/05:00am 21.0 19.4 12.7 59 4.8 NE 13 15 7 8 1009.7 1008.4 0.0
14/04:30am 21.5 19.5 12.6 57 5.1 NE 15 15 8 8 1009.5 1008.2 0.0
14/04:00am 21.5 19.2 11.8 54 5.5 NE 15 17 8 9 1009.6 1008.3 0.0
14/03:30am 22.6 20.4 12.0 51 6.0 NE 15 17 8 9 1009.6 1008.3 0.0
14/03:00am 23.5 21.0 12.2 49 6.5 NNE 17 19 9 10 1009.3 1008.0 0.0
14/02:30am 23.9 21.6 11.6 46 7.0 NE 15 17 8 9 1009.4 1008.1 0.0
14/02:00am 24.9 22.4 11.1 42 7.8 ENE 15 20 8 11 1009.7 1008.4 0.0
14/01:30am 25.7 22.8 11.1 40 8.3 ENE 17 20 9 11 1009.9 1008.6 0.0
14/01:00am 25.8 23.1 10.4 38 8.7 NE 15 17 8 9 1010.1 1008.8 0.0
14/12:30am 26.5 23.6 9.8 35 9.3 ENE 15 17 8 9 1010.3 1009.0 0.0
14/12:00am 27.1 23.8 9.5 33 9.8 ENE 17 22 9 12 1010.3 1009.0 0.0
 
Date/Time
EDT
Temp
°C
App
Temp
°C
Dew
Point
Rel
Hum
%
Delta-T
°C
Wind Press
QNH
hPa
Press
MSL
hPa
Rain
since 9 am
mm
Dir
 
Spd
km/h
Gust
km/h
Spd
kts
Gust
kts
13/11:30pm 26.6 22.2 7.6 30 10.2 ENE 20 26 11 14 1010.4 1009.1 0.0
13/11:00pm 26.5 22.1 6.5 28 10.6 E 19 22 10 12 1010.4 1009.1 0.0
13/10:30pm 25.7 23.0 7.3 31 9.8 S 11 15 6 8 1010.0 1008.7 0.0
13/10:00pm 26.3 22.4 6.9 29 10.3 S 17 17 9 9 1009.8 1008.5 0.0
13/09:30pm 27.9 23.9 6.6 26 11.4 S 17 19 9 10 1009.5 1008.2 0.0
13/09:00pm 29.1 24.9 5.9 23 12.3 S 17 20 9 11 1009.4 1008.1 0.0
13/08:30pm 30.5 25.7 5.7 21 13.2 SSW 20 30 11 16 1009.0 1007.7 0.0
13/08:00pm 31.9 28.2 4.6 18 14.4 S 13 20 7 11 1008.7 1007.4 0.0
13/07:30pm 33.8 27.4 5.4 17 15.3 SSW 28 41 15 22 1008.2 1006.9 0.0
13/07:00pm 34.8 28.4 5.3 16 16.0 SW 28 35 15 19 1007.9 1006.6 0.0
13/06:30pm 35.8 33.0 5.1 15 16.7 S 9 19 5 10 1008.0 1006.7 0.0
13/06:00pm 35.5 32.1 3.9 14 16.9 SE 11 19 6 10 1008.0 1006.7 0.0
13/05:30pm 36.3 32.2 4.6 14 17.1 SW 15 24 8 13 1008.0 1006.7 0.0
13/05:00pm 35.5 32.5 5.8 16 16.3 SE 11 22 6 12 1008.3 1007.0 0.0
13/04:30pm 35.5 31.3 5.8 16 16.3 WSW 17 26 9 14 1008.5 1007.2 0.0
13/04:00pm 35.1 31.0 8.0 19 15.4 SSE 19 32 10 17 1009.1 1007.8 0.0
13/03:30pm 34.2 31.7 8.0 20 14.8 S 11 32 6 17 1009.5 1008.2 0.0
13/03:00pm 33.9 30.0 8.5 21 14.4 SSW 19 37 10 20 1010.0 1008.7 0.0
13/02:30pm 33.4 29.6 7.4 20 14.5 SSE 17 28 9 15 1010.5 1009.2 0.0
13/02:00pm 33.3 30.2 7.3 20 14.4 WSW 13 24 7 13 1011.0 1009.7 0.0
13/01:30pm 32.4 29.5 8.0 22 13.6 SSW 13 22 7 12 1011.6 1010.4 0.0
13/01:00pm 31.4 28.9 8.4 24 12.9 SSW 11 24 6 13 1012.2 1010.9 0.0
13/12:30pm 30.2 27.7 8.0 25 12.3 SSE 11 20 6 11 1012.8 1011.5 0.0
13/12:00pm 30.1 27.6 9.6 28 11.6 ESE 13 24 7 13 1013.2 1011.9 0.0
13/11:30am 28.6 27.0 10.3 32 10.4 E 9 13 5 7 1013.5 1012.2 0.0
13/11:00am 27.4 25.4 10.2 34 9.7 E 11 19 6 10 1013.8 1012.5 0.0
13/10:30am 26.7 25.2 12.0 40 8.5 ESE 11 19 6 10 1014.2 1012.9 0.0
13/10:00am 25.6 23.9 12.4 43 7.7 ENE 13 19 7 10 1014.5 1013.2 0.0
13/09:30am 25.0 22.7 12.9 47 7.1 E 17 24 9 13 1014.6 1013.3 0.0
13/09:00am 23.8 20.6 13.1 51 6.2 E 22 28 12 15 1014.4 1013.1 0.0
13/08:30am 23.3 20.6 13.5 54 5.7 E 20 28 11 15 1014.3 1013.0 0.0
13/08:00am 22.1 20.7 13.5 58 5.0 ENE 13 19 7 10 1014.2 1012.9 0.0
13/07:30am 20.8 20.1 13.3 62 4.3 E 9 15 5 8 1013.9 1012.6 0.0
13/07:00am 19.8 18.7 13.0 65 3.9 ENE 11 13 6 7 1013.6 1012.3 0.0
13/06:30am 20.2 18.4 13.2 64 4.0 ENE 15 24 8 13 1013.3 1012.0 0.0
13/06:00am 20.3 18.5 13.3 64 4.0 NE 15 15 8 8 1013.1 1011.8 0.0
13/05:30am 20.7 19.3 13.4 63 4.2 ENE 13 15 7 8 1012.8 1011.5 0.0
13/05:00am 20.7 18.9 13.2 62 4.3 ENE 15 20 8 11 1012.7 1011.4 0.0
13/04:30am 20.6 18.6 12.8 61 4.5 ENE 15 19 8 10 1012.6 1011.3 0.0
13/04:00am 20.7 18.6 12.4 59 4.7 ENE 15 20 8 11 1012.6 1011.3 0.0
13/03:30am 21.0 18.5 12.2 57 5.0 ENE 17 20 9 11 1012.7 1011.4 0.0
13/03:00am 21.4 18.9 12.3 56 5.2 E 17 24 9 13 1012.8 1011.5 0.0
13/02:30am 22.0 19.8 12.0 53 5.7 ENE 15 19 8 10 1012.9 1011.6 0.0
13/02:00am 23.2 20.9 11.9 49 6.4 ENE 15 20 8 11 1012.9 1011.6 0.0
13/01:30am 23.8 21.0 11.5 46 7.0 ENE 17 24 9 13 1013.1 1011.8 0.0
13/01:00am 25.0 21.8 11.2 42 7.8 ENE 19 26 10 14 1013.1 1011.8 0.0
13/12:30am 25.5 22.1 10.5 39 8.4 ENE 19 24 10 13 1013.1 1011.8 0.0
13/12:00am 26.3 22.7 10.5 37 8.9 ENE 20 28 11 15 1012.9 1011.6 0.0
 
Date/Time
EDT
Temp
°C
App
Temp
°C
Dew
Point
Rel
Hum
%
Delta-T
°C
Wind Press
QNH
hPa
Press
MSL
hPa
Rain
since 9 am
mm
Dir
 
Spd
km/h
Gust
km/h
Spd
kts
Gust
kts
12/11:30pm 27.1 22.3 10.3 35 9.5 ENE 26 32 14 17 1012.7 1011.4 0.0
12/11:00pm 27.6 24.1 10.3 34 9.8 ENE 19 24 10 13 1012.6 1011.3 0.0
12/10:30pm 28.4 24.9 10.1 32 10.4 ENE 19 28 10 15 1012.6 1011.3 0.0
12/10:00pm 29.2 26.2 9.3 29 11.2 E 15 17 8 9 1012.2 1010.9 0.0
12/09:30pm 29.4 29.2 10.5 31 10.8 E 2 11 1 6 1012.0 1010.7 0.0
12/09:00pm 29.0 27.8 11.6 34 10.1 WNW 9 11 5 6 1011.4 1010.2 0.0
12/08:30pm 29.7 29.2 10.8 31 10.9 N 4 7 2 4 1011.0 1009.7 0.0
12/08:00pm 30.6 28.1 8.3 25 12.4 SSE 11 13 6 7 1010.9 1009.6 0.0
12/07:30pm 32.3 30.8 9.2 24 13.2 SSW 7 13 4 7 1010.7 1009.4 0.0
12/07:00pm 32.8 30.5 8.9 23 13.6 S 11 13 6 7 1010.4 1009.1 0.0
12/06:30pm 33.9 32.0 9.2 22 14.2 SSW 9 13 5 7 1010.1 1008.8 0.0
12/06:00pm 33.7 31.6 9.7 23 13.9 SSW 11 15 6 8 1010.2 1008.9 0.0
12/05:30pm 33.6 31.8 10.9 25 13.3 WNW 11 17 6 9 1010.3 1009.0 0.0
12/05:00pm 33.2 28.3 9.9 24 13.5 S 26 35 14 19 1010.4 1009.1 0.0
12/04:30pm 33.9 31.5 9.9 23 13.9 S 13 26 7 14 1010.5 1009.2 0.0
12/04:00pm 33.6 30.8 11.5 26 13.1 SSW 17 26 9 14 1010.8 1009.5 0.0
12/03:30pm 32.8 30.6 10.8 26 12.9 SE 13 26 7 14 1011.4 1010.2 0.0
12/03:00pm 33.3 29.9 10.6 25 13.3 S 19 32 10 17 1011.7 1010.5 0.0
12/02:30pm 33.8 31.1 10.4 24 13.7 S 15 32 8 17 1012.3 1011.0 0.0
12/02:00pm 32.9 30.4 9.7 24 13.4 SSE 13 28 7 15 1012.7 1011.4 0.0
12/01:30pm 30.9 28.6 10.3 28 11.9 SW 13 24 7 13 1013.2 1011.9 0.0
12/01:00pm 30.4 29.2 10.4 29 11.5 SSE 7 17 4 9 1013.6 1012.3 0.0
12/12:30pm 30.5 28.4 11.0 30 11.3 ENE 13 20 7 11 1014.0 1012.7 0.0
12/12:00pm 29.0 27.3 11.1 33 10.3 ENE 11 19 6 10 1014.5 1013.2 0.0
12/11:30am 29.3 27.9 12.3 35 10.0 ENE 11 17 6 9 1014.8 1013.5 0.0
12/11:00am 28.1 26.8 12.5 38 9.2 E 11 20 6 11 1015.2 1013.9 0.0
12/10:30am 27.4 25.6 13.4 42 8.3 ENE 15 22 8 12 1015.5 1014.3 0.0
12/10:00am 26.9 25.4 14.3 46 7.6 ENE 15 26 8 14 1015.6 1014.4 0.0
12/09:30am 25.4 23.0 13.9 49 6.8 NE 19 28 10 15 1015.6 1014.4 0.0
12/09:00am 24.3 22.8 14.1 53 6.1 NE 15 20 8 11 1015.5 1014.3 0.0
12/08:30am 23.6 22.2 14.6 57 5.4 ENE 15 19 8 10 1015.4 1014.2 0.0
12/08:00am 22.8 22.4 15.1 62 4.6 NE 11 15 6 8 1015.2 1013.9 0.0
12/07:30am 22.0 21.5 14.9 64 4.2 NE 11 13 6 7 1014.8 1013.5 0.0
12/07:00am 21.6 20.8 15.2 67 3.8 ENE 13 15 7 8 1014.4 1013.1 0.0
12/06:30am 21.7 20.1 15.1 66 3.9 NE 17 19 9 10 1014.0 1012.7 0.0
12/06:00am 21.8 20.7 15.2 66 4.0 NE 15 17 8 9 1013.8 1012.5 0.0
12/05:30am 22.2 20.6 15.1 64 4.3 NE 17 20 9 11 1013.6 1012.3 0.0
12/05:00am 22.5 20.9 15.1 63 4.4 NE 17 24 9 13 1013.1 1011.8 0.0
12/04:30am 22.9 21.4 15.2 62 4.6 NE 17 22 9 12 1012.7 1011.4 0.0
12/04:00am 23.2 21.7 15.3 61 4.8 NE 17 22 9 12 1013.0 1011.7 0.0
12/03:30am 23.5 21.6 15.3 60 5.0 NE 19 24 10 13 1012.9 1011.6 0.0
12/03:00am 24.1 22.0 15.1 57 5.4 NE 20 26 11 14 1012.9 1011.6 0.0
12/02:30am 24.8 22.2 14.9 54 6.0 ENE 22 32 12 17 1012.8 1011.5 0.0
12/02:00am 25.3 22.4 14.1 50 6.7 ENE 22 30 12 16 1012.9 1011.6 0.0
12/01:30am 25.6 22.3 12.8 45 7.5 ENE 22 30 12 16 1013.4 1012.1 0.0
12/01:00am 26.1 22.5 11.8 41 8.3 ENE 22 32 12 17 1013.4 1012.1 0.0
12/12:30am 26.4 22.3 11.3 39 8.7 ENE 24 30 13 16 1013.1 1011.8 0.0
12/12:00am 27.7 24.2 10.9 35 9.6 NE 20 26 11 14 1013.1 1011.8 0.0
 
Date/Time
EDT
Temp
°C
App
Temp
°C
Dew
Point
Rel
Hum
%
Delta-T
°C
Wind Press
QNH
hPa
Press
MSL
hPa
Rain
since 9 am
mm
Dir
 
Spd
km/h
Gust
km/h
Spd
kts
Gust
kts
11/11:30pm 27.8 24.8 10.5 34 9.8 NNE 17 24 9 13 1012.8 1011.5 0.0
11/11:00pm 28.0 25.0 10.7 34 9.9 NNE 17 20 9 11 1012.5 1011.2 0.0
11/10:30pm 28.7 25.3 10.4 32 10.4 NE 19 22 10 12 1012.3 1011.0 0.0
11/10:00pm 29.6 27.2 10.2 30 11.1 NE 13 33 7 18 1011.9 1010.6 0.0
11/09:30pm 27.9 26.5 11.0 35 9.7 NW 9 9 5 5 1011.0 1009.7 0.0
11/09:00pm 28.4 27.0 11.0 34 10.0 NNW 9 9 5 5 1010.7 1009.4 0.0
11/08:30pm 29.5 28.0 10.6 31 10.9 NW 9 11 5 6 1010.1 1008.8 0.0
11/08:00pm 31.2 29.0 9.4 26 12.4 N 11 11 6 6 1010.0 1008.7 0.0
11/07:30pm 32.4 30.0 9.9 25 13.0 NNW 13 13 7 7 1009.6 1008.3 0.0
11/07:00pm 33.2 30.2 9.3 23 13.7 N 15 20 8 11 1009.2 1007.9 0.0
11/06:30pm 33.9 31.5 9.9 23 13.9 NNE 13 22 7 12 1009.0 1007.7 0.0
11/06:00pm 34.6 31.9 9.1 21 14.7 SSE 13 17 7 9 1009.0 1007.7 0.0
11/05:30pm 34.8 31.2 9.9 22 14.5 S 19 24 10 13 1009.3 1008.0 0.0
11/05:00pm 35.0 32.8 10.8 23 14.3 SSW 13 22 7 12 1009.4 1008.1 0.0
11/04:30pm 34.7 32.3 9.9 22 14.4 S 13 24 7 13 1009.7 1008.4 0.0
11/04:00pm 34.0 31.6 9.9 23 14.0 ESE 13 24 7 13 1010.1 1008.8 0.0
11/03:30pm 33.9 31.1 8.5 21 14.4 SSE 13 19 7 10 1010.6 1009.3 0.0
11/03:00pm 34.3 31.2 10.2 23 14.1 S 17 26 9 14 1011.1 1009.8 0.0
11/02:30pm 33.4 31.3 11.3 26 13.1 SSW 13 32 7 17 1011.7 1010.5 0.0
11/02:00pm 32.7 31.0 12.3 28 12.2 SW 13 22 7 12 1012.1 1010.8 0.0
11/01:30pm 30.9 29.9 12.3 32 11.0 SW 9 15 5 8 1012.6 1011.3 0.0
11/01:00pm 30.7 29.0 12.6 33 10.8 SSW 13 19 7 10 1013.0 1011.7 0.0
11/12:30pm 29.4 28.3 13.2 37 9.7 WSW 11 17 6 9 1013.5 1012.2 0.0
11/12:00pm 28.9 27.8 14.3 40 8.9 WNW 13 19 7 10 1013.9 1012.6 0.0
11/11:30am 28.8 28.2 14.6 42 8.7 NNE 11 17 6 9 1014.1 1012.8 0.0
11/11:00am 27.4 25.7 14.8 46 7.7 NNE 17 24 9 13 1014.3 1013.0 0.0
11/10:30am 26.3 25.1 15.0 49 6.9 NE 15 28 8 15 1014.3 1013.0 0.0
11/10:00am 25.7 24.2 15.4 53 6.3 NE 17 26 9 14 1014.5 1013.2 0.0
11/09:30am 24.5 22.9 15.1 55 5.7 NNE 17 22 9 12 1014.8 1013.5 0.0
11/09:00am 24.0 22.8 15.0 57 5.4 NE 15 24 8 13 1014.9 1013.6 0.0
11/08:30am 23.0 21.6 14.6 59 5.0 NE 15 19 8 10 1014.7 1013.4 0.0
11/08:00am 22.1 20.8 14.7 63 4.4 NE 15 19 8 10 1014.4 1013.1 0.0
11/07:30am 20.7 19.9 13.9 65 4.0 NE 11 13 6 7 1014.0 1012.7 0.0
11/07:00am 19.7 18.0 13.6 68 3.5 NE 15 17 8 9 1013.5 1012.2 0.0

Other Formats:

Comma delimited format used in spreadsheet applications
http://www.bom.gov.au/fwo/IDN60801/IDN60801.95527.axf

JavaScript Object Notation format (JSON) in row-major order
http://www.bom.gov.au/fwo/IDN60801/IDN60801.95527.json